Time;durP1;ratioP1;P1;durP2;ratioP2;P2;SDS_P1;SDS_P2;PMS_P1;PMS_P2;Temp;Humidity;BMP_temperature;BMP_pressure;BME280_temperature;BME280_humidity;BME280_pressure;Samples;Min_cycle;Max_cycle;Signal;HPM_P1;HPM_P2
2022/04/09 00:01:28;;;;;;;6.40;1.58;;;4.40;86.90;;;;;;5031914;28;20409;-80
2022/04/09 00:03:54;;;;;;;5.50;0.93;;;4.50;80.00;;;;;;5032178;28;20010;-81
2022/04/09 00:06:19;;;;;;;3.10;0.55;;;4.80;59.50;;;;;;5030118;28;20026;-81
2022/04/09 00:08:45;;;;;;;1.63;0.52;;;4.90;25.50;;;;;;5027342;28;20101;-81
2022/04/09 00:11:11;;;;;;;2.15;0.57;;;5.00;13.80;;;;;;5027773;28;20038;-80
2022/04/09 00:13:37;;;;;;;4.75;0.38;;;4.80;15.70;;;;;;5028265;28;20018;-81
2022/04/09 00:16:03;;;;;;;8.00;0.98;;;4.60;24.90;;;;;;5027451;28;20046;-81
2022/04/09 00:18:28;;;;;;;4.13;0.75;;;4.60;11.40;;;;;;5025604;28;20049;-81
2022/04/09 00:20:55;;;;;;;2.50;0.45;;;4.50;1.00;;;;;;5027851;28;20022;-81
2022/04/09 00:23:22;;;;;;;3.92;1.10;;;4.50;1.00;;;;;;5027876;28;20029;-81
2022/04/09 00:25:47;;;;;;;4.63;1.00;;;4.30;1.00;;;;;;5015810;28;20038;-81
2022/04/09 00:28:13;;;;;;;5.43;1.35;;;4.20;1.00;;;;;;5028121;28;20139;-81
2022/04/09 00:30:38;;;;;;;7.75;1.20;;;4.40;1.00;;;;;;5027705;28;20026;-81
2022/04/09 00:33:04;;;;;;;2.78;0.50;;;4.50;1.00;;;;;;5028313;28;20414;-81
2022/04/09 00:35:30;;;;;;;8.18;1.05;;;4.70;1.00;;;;;;5028036;28;20022;-82
2022/04/09 00:37:55;;;;;;;1.45;0.52;;;4.80;1.00;;;;;;5018950;28;20032;-80
2022/04/09 00:40:25;;;;;;;5.32;0.75;;;5.00;1.00;;;;;;5022845;28;20026;-81
2022/04/09 00:42:51;;;;;;;1.83;0.50;;;5.00;1.00;;;;;;5029882;28;20030;-81
2022/04/09 00:45:16;;;;;;;3.45;0.50;;;5.00;1.00;;;;;;5029004;28;20048;-81
2022/04/09 00:47:42;;;;;;;3.15;0.55;;;4.90;1.00;;;;;;5027335;28;20022;-81
2022/04/09 00:50:10;;;;;;;2.75;0.40;;;4.90;1.00;;;;;;5029363;28;20059;-81
2022/04/09 00:52:39;;;;;;;4.47;0.77;;;5.00;1.00;;;;;;5029981;28;20025;-81
2022/04/09 00:55:05;;;;;;;3.15;0.40;;;5.10;1.00;;;;;;5027840;28;20013;-82
2022/04/09 00:57:37;;;;;;;2.42;0.30;;;4.90;1.00;;;;;;5027667;28;20034;-81
2022/04/09 01:00:12;;;;;;;5.10;0.63;;;4.90;1.00;;;;;;5025573;28;20017;-81
2022/04/09 01:02:40;;;;;;;3.85;0.75;;;4.90;1.00;;;;;;5029208;28;20018;-82
2022/04/09 01:05:07;;;;;;;5.97;0.70;;;5.00;1.00;;;;;;5008781;28;20026;-82
2022/04/09 01:07:34;;;;;;;6.18;0.70;;;5.00;1.00;;;;;;5016971;28;20018;-81
2022/04/09 01:10:03;;;;;;;4.85;0.80;;;4.90;1.00;;;;;;5029347;28;20038;-81
2022/04/09 01:12:29;;;;;;;5.93;2.15;;;5.00;1.00;;;;;;5042756;23;20028;-84
2022/04/09 01:14:55;;;;;;;5.82;0.77;;;4.80;1.00;;;;;;5015054;28;20125;-85
2022/04/09 01:17:21;;;;;;;3.60;0.75;;;4.70;1.00;;;;;;5010672;28;20018;-85
2022/04/09 01:19:46;;;;;;;2.50;0.70;;;4.60;1.00;;;;;;5009496;28;20402;-84
2022/04/09 01:22:14;;;;;;;4.05;1.05;;;4.70;1.00;;;;;;5019376;28;20036;-85
2022/04/09 01:24:40;;;;;;;1.25;0.40;;;4.70;1.00;;;;;;5027471;28;20048;-85
2022/04/09 01:27:17;;;;;;;1.70;0.60;;;4.50;1.00;;;;;;5017800;28;20473;-85
2022/04/09 01:29:43;;;;;;;5.30;0.63;;;4.40;1.00;;;;;;5012588;28;20030;-85
2022/04/09 01:32:10;;;;;;;4.22;0.80;;;4.30;1.00;;;;;;5002191;28;20026;-85
2022/04/09 01:34:37;;;;;;;1.65;0.50;;;4.30;1.00;;;;;;5005363;28;20018;-85
2022/04/09 01:37:02;;;;;;;1.52;0.50;;;4.40;1.00;;;;;;5009837;28;20030;-85
2022/04/09 01:39:28;;;;;;;4.65;1.20;;;4.30;1.00;;;;;;4988536;28;20038;-85
2022/04/09 01:41:53;;;;;;;3.30;0.80;;;4.30;1.00;;;;;;4992053;28;20513;-84
2022/04/09 01:44:19;;;;;;;5.43;0.77;;;4.20;1.00;;;;;;4998953;28;20470;-85
2022/04/09 01:46:44;;;;;;;4.60;0.85;;;4.10;1.00;;;;;;5006683;28;20018;-85
2022/04/09 01:49:11;;;;;;;3.30;1.17;;;4.10;1.00;;;;;;5012152;28;20080;-84
2022/04/09 01:51:37;;;;;;;12.13;1.08;;;4.10;1.00;;;;;;5010856;28;20034;-84
2022/04/09 01:54:03;;;;;;;5.60;1.23;;;4.10;1.00;;;;;;4993161;28;20356;-85
2022/04/09 01:56:28;;;;;;;2.47;0.60;;;4.00;1.00;;;;;;5001925;28;20018;-84
2022/04/09 01:58:54;;;;;;;10.52;1.60;;;4.30;1.00;;;;;;5010110;28;20026;-84
2022/04/09 02:01:19;;;;;;;4.88;0.90;;;4.60;1.00;;;;;;5010933;28;20022;-84
2022/04/09 02:03:45;;;;;;;2.15;0.70;;;4.60;10.80;;;;;;5005645;28;20030;-84
2022/04/09 02:06:11;;;;;;;3.83;0.68;;;4.50;37.50;;;;;;5006224;28;20022;-85
2022/04/09 02:08:37;;;;;;;3.92;0.45;;;4.70;1.00;;;;;;5006682;28;20038;-85
2022/04/09 02:11:02;;;;;;;0.98;0.30;;;4.60;1.00;;;;;;5010337;28;20077;-84
2022/04/09 02:13:28;;;;;;;4.57;0.40;;;4.50;1.00;;;;;;5013813;28;20054;-84
2022/04/09 02:15:54;;;;;;;2.25;1.10;;;4.20;1.00;;;;;;4998760;28;20065;-84
2022/04/09 02:18:22;;;;;;;2.55;0.30;;;4.10;1.00;;;;;;4978424;28;20030;-84
2022/04/09 02:20:48;;;;;;;7.20;0.50;;;4.10;1.00;;;;;;4994479;28;20030;-84
2022/04/09 02:23:13;;;;;;;7.88;1.08;;;3.90;1.00;;;;;;4994610;28;20072;-85
2022/04/09 02:25:39;;;;;;;8.15;0.90;;;3.80;1.00;;;;;;4994564;28;20023;-84
2022/04/09 02:28:05;;;;;;;4.82;0.80;;;3.80;3.30;;;;;;4985415;28;20046;-84
2022/04/09 02:30:30;;;;;;;6.85;0.80;;;3.60;38.80;;;;;;4988662;28;20404;-84
2022/04/09 02:32:56;;;;;;;5.82;1.08;;;3.70;37.50;;;;;;4986019;28;20470;-84
2022/04/09 02:35:28;;;;;;;5.60;0.70;;;3.60;62.70;;;;;;4995273;28;20504;-84
2022/04/09 02:37:54;;;;;;;4.30;0.68;;;3.80;75.00;;;;;;4994145;28;20030;-84
2022/04/09 02:40:20;;;;;;;2.75;0.60;;;4.20;49.80;;;;;;4993967;28;20433;-85
2022/04/09 02:42:46;;;;;;;5.28;0.50;;;4.40;1.00;;;;;;4980564;28;20023;-84
2022/04/09 02:45:12;;;;;;;3.88;0.70;;;4.30;1.00;;;;;;4975010;28;20019;-84
2022/04/09 02:47:37;;;;;;;1.02;0.80;;;4.20;1.00;;;;;;4974577;28;20488;-84
2022/04/09 02:50:05;;;;;;;5.85;1.15;;;4.20;1.00;;;;;;4974366;28;20122;-84
2022/04/09 02:52:34;;;;;;;1.58;0.43;;;4.00;24.60;;;;;;4975923;28;20447;-85
2022/04/09 02:55:00;;;;;;;5.60;0.80;;;4.00;65.20;;;;;;4989420;28;20041;-85
2022/04/09 02:57:26;;;;;;;4.85;0.50;;;3.90;63.30;;;;;;4994060;28;20022;-84
2022/04/09 02:59:52;;;;;;;5.63;0.77;;;3.80;96.50;;;;;;4988148;28;20026;-84
2022/04/09 03:02:17;;;;;;;2.92;0.68;;;3.80;99.90;;;;;;4991082;28;20034;-84
2022/04/09 03:04:43;;;;;;;4.03;0.65;;;4.00;99.90;;;;;;4993587;28;20052;-84
2022/04/09 03:07:08;;;;;;;4.32;0.70;;;4.10;94.80;;;;;;4994839;28;20023;-85
2022/04/09 03:09:34;;;;;;;3.33;0.80;;;4.30;70.40;;;;;;4976871;28;20046;-84
2022/04/09 03:12:00;;;;;;;5.38;0.50;;;4.40;49.80;;;;;;4993675;28;20430;-85
2022/04/09 03:14:25;;;;;;;5.80;0.77;;;4.50;37.60;;;;;;4993664;28;20049;-84
2022/04/09 03:16:51;;;;;;;5.53;1.08;;;4.50;32.90;;;;;;4976968;28;20026;-84
2022/04/09 03:19:16;;;;;;;7.45;0.75;;;4.40;38.90;;;;;;4993347;28;20049;-84
2022/04/09 03:21:42;;;;;;;5.10;1.02;;;4.40;71.70;;;;;;4959720;28;20509;-84
2022/04/09 03:24:07;;;;;;;5.65;0.95;;;4.40;64.00;;;;;;4993516;28;20701;-84
2022/04/09 03:26:33;;;;;;;4.10;1.23;;;4.30;63.40;;;;;;4977001;28;20023;-84
2022/04/09 03:28:59;;;;;;;3.30;0.88;;;4.50;14.70;;;;;;4993184;28;20106;-85
2022/04/09 03:31:24;;;;;;;6.05;1.00;;;4.50;3.30;;;;;;4984166;28;20070;-84
2022/04/09 03:33:52;;;;;;;8.23;1.65;;;4.60;1.00;;;;;;4974866;28;20050;-85
2022/04/09 03:36:17;;;;;;;6.22;0.95;;;4.60;1.00;;;;;;4973753;28;20114;-85
2022/04/09 03:38:43;;;;;;;5.82;0.80;;;4.40;24.70;;;;;;4984475;28;20117;-85
2022/04/09 03:41:09;;;;;;;5.03;0.57;;;4.10;50.10;;;;;;4992976;28;20653;-85
2022/04/09 03:43:34;;;;;;;4.85;0.50;;;4.10;64.00;;;;;;4993995;28;20037;-85
2022/04/09 03:46:00;;;;;;;1.85;0.65;;;4.00;62.20;;;;;;4993506;28;20030;-84
2022/04/09 03:48:26;;;;;;;8.32;0.90;;;4.00;89.80;;;;;;4976886;28;20035;-84
2022/04/09 03:50:51;;;;;;;3.08;1.02;;;4.30;61.90;;;;;;4976904;28;20030;-84
2022/04/09 03:53:20;;;;;;;1.98;0.40;;;4.70;15.00;;;;;;4970087;28;20490;-84
2022/04/09 03:55:47;;;;;;;3.03;0.70;;;4.70;1.00;;;;;;4981476;28;20473;-85
2022/04/09 03:58:17;;;;;;;2.17;0.52;;;4.60;1.00;;;;;;4973345;28;20030;-84
2022/04/09 04:00:43;;;;;;;4.68;0.73;;;4.40;1.00;;;;;;4984013;28;20089;-84
2022/04/09 04:03:10;;;;;;;1.20;0.57;;;4.20;1.00;;;;;;4992497;28;20030;-85
2022/04/09 04:05:38;;;;;;;3.20;0.77;;;4.10;1.00;;;;;;4976340;28;20027;-84
2022/04/09 04:08:08;;;;;;;5.75;0.45;;;3.90;1.00;;;;;;4989666;28;20030;-84
2022/04/09 04:10:36;;;;;;;4.70;0.60;;;3.90;1.00;;;;;;4985504;28;20129;-84
2022/04/09 04:13:02;;;;;;;3.63;0.30;;;3.80;1.70;;;;;;4984500;28;20050;-85
2022/04/09 04:15:27;;;;;;;4.22;1.40;;;3.90;1.00;;;;;;4992300;28;20081;-85
2022/04/09 04:17:53;;;;;;;5.40;0.63;;;3.90;1.00;;;;;;4983186;28;20030;-85
2022/04/09 04:20:18;;;;;;;4.43;0.95;;;3.80;1.00;;;;;;4979356;28;20454;-84
2022/04/09 04:22:44;;;;;;;2.60;0.65;;;3.70;16.10;;;;;;4983565;28;20089;-84
2022/04/09 04:25:10;;;;;;;5.88;0.60;;;3.70;48.70;;;;;;4993306;28;20030;-85
2022/04/09 04:27:51;;;;;;;6.90;0.77;;;3.90;60.00;;;;;;4978252;28;20408;-84
2022/04/09 04:30:18;;;;;;;2.38;0.57;;;4.10;49.60;;;;;;4966620;28;20046;-85
2022/04/09 04:32:43;;;;;;;3.53;1.00;;;4.00;69.20;;;;;;4991436;28;20026;-84
2022/04/09 04:35:10;;;;;;;5.40;1.15;;;4.00;93.40;;;;;;4993102;28;20022;-85
2022/04/09 04:37:43;;;;;;;7.40;1.13;;;4.00;75.30;;;;;;4976533;28;20027;-84
2022/04/09 04:40:10;;;;;;;5.28;1.60;;;3.90;71.50;;;;;;4984473;28;20033;-85
2022/04/09 04:42:36;;;;;;;4.45;1.27;;;3.70;91.80;;;;;;4976444;28;20030;-85
2022/04/09 04:45:03;;;;;;;7.15;1.25;;;4.00;97.90;;;;;;4974956;28;20030;-85
2022/04/09 04:47:29;;;;;;;8.93;1.02;;;4.20;66.70;;;;;;4991813;28;20037;-84
2022/04/09 04:49:54;;;;;;;4.63;1.20;;;4.30;94.30;;;;;;4991749;28;20034;-85
2022/04/09 04:52:20;;;;;;;5.57;0.90;;;4.30;65.90;;;;;;4996571;28;20563;-84
2022/04/09 04:54:45;;;;;;;4.63;0.80;;;4.20;65.30;;;;;;4986656;28;20526;-84
2022/04/09 04:57:11;;;;;;;4.05;1.10;;;4.20;21.30;;;;;;4983796;28;20030;-85
2022/04/09 04:59:38;;;;;;;5.82;0.95;;;4.00;45.50;;;;;;4977271;28;20517;-85
2022/04/09 05:02:03;;;;;;;9.82;1.13;;;4.00;33.80;;;;;;4988173;28;20038;-84
2022/04/09 05:04:29;;;;;;;4.47;0.82;;;4.10;5.90;;;;;;4994786;28;20477;-84
2022/04/09 05:06:55;;;;;;;7.20;1.00;;;4.20;1.00;;;;;;4993614;28;20506;-84
2022/04/09 05:09:22;;;;;;;4.55;0.98;;;4.40;1.00;;;;;;4991873;28;20030;-85
2022/04/09 05:11:47;;;;;;;2.45;0.90;;;4.30;1.00;;;;;;4983304;28;20090;-85
2022/04/09 05:14:13;;;;;;;4.80;0.60;;;4.30;1.00;;;;;;4983748;28;20050;-85
2022/04/09 05:16:38;;;;;;;1.40;0.47;;;4.30;1.00;;;;;;4976691;28;20031;-84
2022/04/09 05:19:05;;;;;;;4.65;0.73;;;4.40;1.00;;;;;;4999723;28;20034;-85
2022/04/09 05:21:31;;;;;;;6.22;0.90;;;4.40;1.00;;;;;;4991624;28;20482;-85
2022/04/09 05:24:00;;;;;;;2.35;0.65;;;4.50;1.00;;;;;;4974830;28;20589;-84
2022/04/09 05:26:25;;;;;;;5.25;0.50;;;4.50;1.00;;;;;;4989046;28;20489;-84
2022/04/09 05:28:53;;;;;;;4.32;0.68;;;4.40;1.00;;;;;;4994906;28;20033;-84
2022/04/09 05:31:27;;;;;;;3.53;0.70;;;4.60;1.00;;;;;;4991471;28;20419;-85
2022/04/09 05:33:56;;;;;;;8.60;0.82;;;4.70;1.00;;;;;;4991654;28;20030;-84
2022/04/09 05:36:21;;;;;;;4.95;0.80;;;4.80;1.00;;;;;;4991799;28;20459;-85
2022/04/09 05:38:47;;;;;;;5.18;1.20;;;4.90;1.00;;;;;;4998506;28;20040;-85
2022/04/09 05:41:13;;;;;;;6.05;1.40;;;5.00;1.00;;;;;;4999130;28;20384;-85
2022/04/09 05:43:39;;;;;;;11.77;1.10;;;5.40;1.00;;;;;;4972021;28;20035;-84
2022/04/09 05:46:05;;;;;;;8.02;0.93;;;5.60;1.00;;;;;;4958890;28;20023;-85
2022/04/09 05:48:31;;;;;;;3.40;0.60;;;5.80;1.00;;;;;;4985441;28;20033;-84
2022/04/09 05:50:57;;;;;;;2.90;1.05;;;6.50;1.00;;;;;;4996989;28;20038;-84
2022/04/09 05:53:22;;;;;;;4.85;0.30;;;6.70;1.00;;;;;;5014585;28;20068;-84
2022/04/09 05:55:48;;;;;;;7.45;1.05;;;6.30;1.00;;;;;;5015806;28;20168;-86
2022/04/09 05:58:14;;;;;;;3.90;0.73;;;5.90;1.00;;;;;;5004564;28;20027;-85
2022/04/09 06:00:40;;;;;;;5.35;0.63;;;5.60;1.00;;;;;;4989571;28;20811;-84
2022/04/09 06:03:05;;;;;;;5.95;0.82;;;5.40;1.00;;;;;;4993267;28;20478;-84
2022/04/09 06:05:31;;;;;;;9.43;1.45;;;5.30;1.00;;;;;;4988013;28;20042;-85
2022/04/09 06:07:56;;;;;;;10.65;1.13;;;5.40;1.00;;;;;;4994935;28;20390;-84
2022/04/09 06:10:22;;;;;;;6.90;1.17;;;5.40;1.00;;;;;;4976213;28;20144;-84
2022/04/09 06:12:48;;;;;;;4.90;0.90;;;5.50;1.00;;;;;;4974879;28;20047;-85
2022/04/09 06:15:13;;;;;;;5.30;0.82;;;5.60;1.00;;;;;;4976580;28;20034;-85
2022/04/09 06:17:39;;;;;;;2.53;0.68;;;5.70;1.00;;;;;;4990001;28;20089;-85
2022/04/09 06:20:06;;;;;;;13.23;1.85;;;6.00;1.00;;;;;;4974933;28;20030;-84
2022/04/09 06:22:32;;;;;;;6.50;0.90;;;6.10;1.00;;;;;;4990958;28;20027;-84
2022/04/09 06:24:59;;;;;;;3.67;0.85;;;5.90;1.00;;;;;;4977493;28;20034;-85
2022/04/09 06:27:24;;;;;;;3.45;1.20;;;5.80;1.00;;;;;;4989329;28;20026;-85
2022/04/09 06:29:50;;;;;;;11.40;1.67;;;5.80;1.00;;;;;;4995570;28;20026;-85
2022/04/09 06:32:15;;;;;;;2.88;1.40;;;5.90;1.00;;;;;;4985244;28;20113;-84
2022/04/09 06:34:41;;;;;;;5.95;1.08;;;6.10;1.00;;;;;;4976639;28;20494;-85
2022/04/09 06:37:06;;;;;;;5.93;0.70;;;6.10;1.00;;;;;;4984578;28;20429;-85
2022/04/09 06:39:33;;;;;;;3.40;0.65;;;6.20;1.00;;;;;;4974664;28;20022;-84
2022/04/09 06:41:58;;;;;;;2.50;0.40;;;6.20;1.00;;;;;;4983226;28;20023;-85
2022/04/09 06:44:25;;;;;;;4.93;0.60;;;6.20;1.00;;;;;;4959261;28;20034;-84
2022/04/09 06:46:51;;;;;;;0.73;0.50;;;6.30;99.90;;;;;;4973966;28;20065;-85
2022/04/09 06:49:16;;;;;;;3.97;0.77;;;6.50;99.90;;;;;;4974029;28;20054;-85
2022/04/09 06:51:44;;;;;;;7.15;1.05;;;10.00;99.90;;;;;;4990348;28;20034;-84
2022/04/09 06:54:10;;;;;;;1.77;0.45;;;14.30;99.90;;;;;;4984861;28;20077;-85
2022/04/09 06:56:39;;;;;;;4.18;0.47;;;16.50;99.90;;;;;;4974350;28;20023;-84
2022/04/09 06:59:05;;;;;;;4.38;0.57;;;16.80;99.90;;;;;;4984742;28;20030;-84
2022/04/09 07:01:30;;;;;;;2.45;0.47;;;19.00;99.90;;;;;;4979785;28;20023;-84
2022/04/09 07:03:56;;;;;;;5.93;1.40;;;18.40;99.90;;;;;;4975775;28;20026;-84
2022/04/09 07:06:23;;;;;;;1.92;0.30;;;19.30;99.90;;;;;;4983804;28;20181;-85
2022/04/09 07:08:48;;;;;;;9.73;0.82;;;20.30;99.90;;;;;;4991518;28;20050;-86
2022/04/09 07:11:14;;;;;;;2.25;0.45;;;21.00;99.90;;;;;;4982330;28;20023;-85
2022/04/09 07:13:39;;;;;;;1.23;0.50;;;22.20;99.90;;;;;;4990882;28;20146;-86
2022/04/09 07:16:05;;;;;;;4.88;0.68;;;21.90;99.90;;;;;;4990744;28;20030;-86
2022/04/09 07:18:31;;;;;;;4.28;0.63;;;23.90;99.90;;;;;;4981627;28;20037;-85
2022/04/09 07:20:56;;;;;;;6.70;0.47;;;22.70;99.90;;;;;;4981803;28;20521;-85
2022/04/09 07:23:22;;;;;;;1.85;0.28;;;22.50;99.90;;;;;;4982757;28;20265;-85
2022/04/09 07:25:48;;;;;;;1.05;0.20;;;24.70;99.90;;;;;;4991565;28;20072;-85
2022/04/09 07:28:13;;;;;;;2.40;1.15;;;24.40;99.90;;;;;;4976427;28;20034;-84
2022/04/09 07:30:41;;;;;;;0.63;0.17;;;23.90;99.90;;;;;;5005466;28;20027;-86
2022/04/09 07:33:07;;;;;;;0.93;0.13;;;19.70;99.90;;;;;;4990195;28;20081;-82
2022/04/09 07:35:35;;;;;;;1.05;0.20;;;15.10;99.90;;;;;;4991159;28;20027;-85
2022/04/09 07:38:01;;;;;;;0.80;0.35;;;13.00;99.90;;;;;;5005255;28;20030;-86
2022/04/09 07:40:28;;;;;;;1.10;0.20;;;12.10;99.90;;;;;;5003661;28;20122;-84
2022/04/09 07:42:54;;;;;;;0.73;0.10;;;11.40;99.90;;;;;;4998393;28;20022;-84
2022/04/09 07:45:20;;;;;;;2.65;0.50;;;11.30;99.90;;;;;;4993239;28;20023;-83
2022/04/09 07:47:51;;;;;;;1.40;0.40;;;14.10;99.90;;;;;;4994945;28;20478;-84
2022/04/09 07:50:17;;;;;;;1.60;0.30;;;19.50;99.90;;;;;;5001065;28;20086;-88
2022/04/09 07:52:43;;;;;;;3.28;0.30;;;21.60;99.90;;;;;;4990270;28;20026;-89
2022/04/09 07:55:11;;;;;;;2.33;0.22;;;23.20;99.90;;;;;;5007974;28;20033;-88
2022/04/09 07:57:40;;;;;;;1.17;0.40;;;22.70;99.90;;;;;;5009243;28;20049;-88
2022/04/09 08:00:08;;;;;;;3.10;0.50;;;22.20;99.90;;;;;;5011799;28;20030;-88
2022/04/09 08:02:34;;;;;;;3.95;0.60;;;24.20;99.90;;;;;;5010042;28;20035;-88
2022/04/09 08:05:01;;;;;;;2.20;0.45;;;24.90;99.90;;;;;;5003945;28;20049;-87
2022/04/09 08:07:27;;;;;;;2.63;0.68;;;23.90;99.90;;;;;;4989740;28;20310;-87
2022/04/09 08:09:53;;;;;;;2.38;0.55;;;25.10;99.90;;;;;;4983491;28;20432;-88
2022/04/09 08:12:21;;;;;;;1.80;0.52;;;25.60;99.90;;;;;;4984741;28;20510;-88
2022/04/09 08:14:47;;;;;;;3.15;0.57;;;25.30;99.90;;;;;;4983776;28;20046;-89
2022/04/09 08:17:13;;;;;;;4.50;0.50;;;25.50;99.90;;;;;;5023688;28;20022;-88
2022/04/09 08:19:39;;;;;;;4.55;0.65;;;24.00;99.90;;;;;;5024762;28;20033;-88
2022/04/09 08:22:08;;;;;;;4.38;0.50;;;24.00;99.90;;;;;;4999230;28;20035;-88
2022/04/09 08:24:34;;;;;;;2.60;0.90;;;23.30;99.90;;;;;;4987015;28;20530;-88
2022/04/09 08:27:00;;;;;;;4.45;0.50;;;19.70;99.90;;;;;;4988016;28;20037;-88
2022/04/09 08:29:26;;;;;;;4.85;0.32;;;19.60;99.90;;;;;;4986452;28;20486;-88
2022/04/09 08:31:52;;;;;;;1.83;0.73;;;20.50;99.90;;;;;;4996276;28;20118;-88
2022/04/09 08:34:19;;;;;;;4.45;0.82;;;22.50;99.90;;;;;;4985584;28;20018;-88
2022/04/09 08:36:45;;;;;;;4.82;1.20;;;21.60;99.90;;;;;;4998431;28;20029;-88
2022/04/09 08:39:11;;;;;;;4.10;0.95;;;20.20;99.90;;;;;;5000267;28;20034;-88
2022/04/09 08:41:44;;;;;;;6.40;0.80;;;20.90;99.90;;;;;;4989995;28;20023;-88
2022/04/09 08:44:17;;;;;;;4.30;0.90;;;22.80;99.90;;;;;;4984192;28;20037;-87
2022/04/09 08:46:46;;;;;;;2.58;0.50;;;23.70;99.90;;;;;;4967755;28;20061;-85
2022/04/09 08:49:12;;;;;;;3.72;0.70;;;25.70;99.90;;;;;;4985833;28;20085;-86
2022/04/09 08:51:37;;;;;;;3.25;0.90;;;25.10;99.90;;;;;;4988168;28;20034;-84
2022/04/09 08:54:04;;;;;;;2.78;0.65;;;26.60;99.90;;;;;;4988125;28;20022;-87
2022/04/09 08:56:33;;;;;;;3.38;0.57;;;26.10;99.90;;;;;;4978337;28;20033;-87
2022/04/09 08:59:00;;;;;;;3.88;0.55;;;25.10;99.90;;;;;;4987496;28;20098;-87
2022/04/09 09:01:26;;;;;;;2.88;0.82;;;20.90;99.90;;;;;;4983996;28;20033;-87
2022/04/09 09:03:52;;;;;;;6.57;0.95;;;19.40;99.90;;;;;;4988819;28;20080;-87
2022/04/09 09:06:30;;;;;;;1.90;0.60;;;18.80;99.90;;;;;;4996850;28;20065;-87
2022/04/09 09:08:57;;;;;;;6.05;1.20;;;18.10;99.90;;;;;;4980115;28;20069;-88
2022/04/09 09:11:24;;;;;;;6.53;0.90;;;16.90;99.90;;;;;;4983983;28;20034;-87
2022/04/09 09:13:51;;;;;;;1.27;0.73;;;18.70;99.90;;;;;;4993361;28;20062;-87
2022/04/09 09:16:31;;;;;;;7.32;1.17;;;19.70;99.90;;;;;;4987334;28;20050;-87
2022/04/09 09:19:05;;;;;;;5.93;0.90;;;19.80;99.90;;;;;;4998506;28;20030;-86
2022/04/09 09:21:30;;;;;;;6.22;0.82;;;18.50;99.90;;;;;;4997768;28;20030;-86
2022/04/09 09:24:13;;;;;;;7.18;0.80;;;17.90;99.90;;;;;;4993131;28;20030;-85
2022/04/09 09:26:39;;;;;;;3.63;1.08;;;20.60;99.90;;;;;;4981270;28;20174;-87
2022/04/09 09:29:08;;;;;;;4.40;1.00;;;20.90;99.90;;;;;;4979868;28;20049;-86
2022/04/09 09:31:44;;;;;;;5.00;1.02;;;16.60;99.90;;;;;;4978790;28;20067;-87
2022/04/09 09:34:12;;;;;;;3.63;1.00;;;17.50;99.90;;;;;;4981554;28;20086;-86
2022/04/09 09:36:40;;;;;;;3.67;0.70;;;21.20;99.90;;;;;;4982566;28;20078;-87
2022/04/09 09:39:07;;;;;;;5.75;0.85;;;15.80;99.90;;;;;;4981656;28;20027;-85
2022/04/09 09:41:32;;;;;;;3.92;0.88;;;11.30;99.90;;;;;;4992059;28;20015;-85
2022/04/09 09:44:06;;;;;;;2.63;0.55;;;9.40;1.00;;;;;;4995566;28;20071;-87
2022/04/09 09:46:32;;;;;;;5.22;1.27;;;9.30;1.00;;;;;;4988712;28;20522;-84
2022/04/09 09:48:58;;;;;;;6.43;0.68;;;9.30;99.90;;;;;;5003508;28;20073;-85
2022/04/09 09:51:25;;;;;;;5.13;0.80;;;9.80;99.90;;;;;;4989395;28;20023;-88
2022/04/09 09:54:07;;;;;;;4.18;0.95;;;10.00;99.90;;;;;;4986552;28;20394;-86
2022/04/09 09:56:35;;;;;;;6.25;1.10;;;9.90;99.90;;;;;;4981559;28;20483;-88
2022/04/09 09:59:02;;;;;;;6.88;1.92;;;9.50;99.90;;;;;;4972238;28;20041;-88
2022/04/09 10:01:28;;;;;;;7.10;1.40;;;9.40;99.90;;;;;;4979046;28;20027;-88
2022/04/09 10:03:54;;;;;;;6.60;1.30;;;9.10;99.90;;;;;;4979186;28;20030;-87
2022/04/09 10:06:23;;;;;;;8.07;1.52;;;9.30;99.90;;;;;;4990633;28;20037;-84
2022/04/09 10:08:48;;;;;;;4.03;0.77;;;10.70;99.90;;;;;;4986933;28;20041;-88
2022/04/09 10:11:17;;;;;;;5.93;0.82;;;12.40;99.90;;;;;;4999223;28;20117;-90
2022/04/09 10:13:44;;;;;;;8.07;0.98;;;12.90;99.90;;;;;;4983235;28;20051;-88
2022/04/09 10:16:12;;;;;;;8.27;1.13;;;11.00;99.90;;;;;;4982579;28;20061;-88
2022/04/09 10:18:39;;;;;;;4.88;0.70;;;10.00;99.90;;;;;;4991483;28;20042;-86
2022/04/09 10:21:05;;;;;;;5.70;0.98;;;10.00;99.90;;;;;;4984361;28;20027;-87
2022/04/09 10:23:33;;;;;;;4.72;0.80;;;9.40;99.90;;;;;;4986944;28;20031;-88
2022/04/09 10:26:00;;;;;;;2.95;0.77;;;8.80;99.90;;;;;;5003078;28;20029;-88
2022/04/09 10:28:40;;;;;;;4.97;1.13;;;8.80;99.90;;;;;;4980427;28;20034;-89
2022/04/09 10:31:24;;;;;;;3.07;0.40;;;12.90;99.90;;;;;;4981245;28;20462;-88
2022/04/09 10:33:56;;;;;;;4.80;0.50;;;17.90;99.90;;;;;;4978221;28;20483;-82
2022/04/09 10:36:40;;;;;;;4.45;1.20;;;16.40;99.90;;;;;;4980078;28;20101;-81
2022/04/09 10:39:40;;;;;;;2.72;0.40;;;12.50;99.90;;;;;;4984572;28;20125;-84
2022/04/09 10:42:06;;;;;;;5.53;0.77;;;12.20;99.90;;;;;;4993000;28;20497;-85
2022/04/09 10:44:44;;;;;;;1.92;0.50;;;14.20;99.90;;;;;;4984975;28;20069;-85
2022/04/09 10:47:13;;;;;;;2.60;0.50;;;12.20;99.90;;;;;;4979628;28;20031;-85
2022/04/09 10:49:38;;;;;;;4.55;0.68;;;11.20;99.90;;;;;;4979864;28;20030;-85
2022/04/09 10:52:11;;;;;;;3.15;0.47;;;10.90;99.90;;;;;;4975145;28;20053;-84
2022/04/09 10:54:37;;;;;;;6.60;0.90;;;13.80;99.90;;;;;;4988169;28;20053;-83
2022/04/09 10:57:20;;;;;;;1.80;0.55;;;17.30;99.90;;;;;;4979541;28;20076;-82
2022/04/09 10:59:56;;;;;;;5.47;0.70;;;16.90;99.90;;;;;;4982562;28;20486;-83
2022/04/09 11:02:23;;;;;;;7.55;0.82;;;15.10;99.90;;;;;;4981343;28;20635;-84
2022/04/09 11:04:48;;;;;;;2.40;0.50;;;15.40;99.90;;;;;;4988608;28;20030;-85
2022/04/09 11:07:18;;;;;;;4.90;0.55;;;14.20;99.90;;;;;;4987257;28;20483;-85
2022/04/09 11:09:56;;;;;;;1.90;0.70;;;13.70;99.90;;;;;;4986378;28;20026;-86
2022/04/09 11:12:31;;;;;;;6.18;1.02;;;13.50;99.90;;;;;;4985321;28;20034;-85
2022/04/09 11:15:00;;;;;;;1.00;0.30;;;12.30;99.90;;;;;;4981021;28;20062;-84
2022/04/09 11:17:28;;;;;;;1.48;0.40;;;10.30;99.90;;;;;;4976492;28;20027;-84
2022/04/09 11:19:54;;;;;;;4.45;1.05;;;9.70;99.90;;;;;;4978243;28;20027;-87
2022/04/09 11:22:29;;;;;;;1.75;0.25;;;8.90;99.90;;;;;;4979333;28;20403;-86
2022/04/09 11:24:54;;;;;;;2.08;0.47;;;8.60;99.90;;;;;;5006766;28;20062;-86
2022/04/09 11:27:20;;;;;;;1.25;0.32;;;8.10;99.90;;;;;;4985313;28;20026;-86
2022/04/09 11:29:46;;;;;;;0.82;0.35;;;7.50;99.90;;;;;;4979956;28;20026;-86
2022/04/09 11:32:19;;;;;;;0.70;0.22;;;7.90;99.90;;;;;;4979285;28;20031;-86
2022/04/09 11:35:01;;;;;;;2.60;0.40;;;8.60;99.90;;;;;;4980027;28;20027;-84
2022/04/09 11:37:30;;;;;;;1.23;0.20;;;9.00;99.90;;;;;;4997717;28;20022;-87
2022/04/09 11:39:57;;;;;;;2.88;0.50;;;9.20;99.90;;;;;;4995298;28;20030;-86
2022/04/09 11:42:23;;;;;;;1.27;0.15;;;9.30;99.90;;;;;;4999436;28;20035;-85
2022/04/09 11:44:49;;;;;;;1.20;0.45;;;9.30;99.90;;;;;;5017853;28;20041;-86
2022/04/09 11:47:23;;;;;;;4.40;0.43;;;9.70;99.90;;;;;;5010883;28;20043;-86
2022/04/09 11:49:49;;;;;;;0.55;0.10;;;10.10;99.90;;;;;;5002062;28;20042;-88
2022/04/09 11:52:30;;;;;;;1.67;0.43;;;9.70;99.90;;;;;;5023936;28;20041;-82
2022/04/09 11:54:59;;;;;;;1.35;0.30;;;10.10;99.90;;;;;;5005804;28;20014;-85
2022/04/09 11:57:25;;;;;;;1.95;0.30;;;9.90;99.90;;;;;;4995862;28;20026;-84
2022/04/09 11:59:55;;;;;;;1.70;0.20;;;9.80;99.90;;;;;;4994074;28;20026;-84
2022/04/09 12:02:25;;;;;;;2.83;0.40;;;10.00;99.90;;;;;;4996278;28;20040;-85
2022/04/09 12:04:52;;;;;;;2.80;0.30;;;9.90;99.90;;;;;;4994896;28;20038;-85
2022/04/09 12:07:19;;;;;;;2.85;0.50;;;10.10;99.90;;;;;;4987702;28;20117;-84
2022/04/09 12:09:45;;;;;;;2.22;0.40;;;10.20;99.90;;;;;;4974355;28;20030;-85
2022/04/09 12:12:13;;;;;;;3.38;0.47;;;10.00;99.90;;;;;;4991751;28;20049;-85
2022/04/09 12:14:42;;;;;;;1.60;0.30;;;9.80;99.90;;;;;;4988868;28;20047;-85
2022/04/09 12:17:12;;;;;;;1.52;0.60;;;9.70;99.90;;;;;;4974028;28;20485;-85
2022/04/09 12:19:40;;;;;;;4.53;0.63;;;10.00;99.90;;;;;;4972151;28;20402;-85
2022/04/09 12:22:23;;;;;;;2.17;0.43;;;10.60;99.90;;;;;;4984733;28;20108;-85
2022/04/09 12:24:56;;;;;;;1.80;0.30;;;10.20;99.90;;;;;;4988198;28;20177;-85
2022/04/09 12:27:42;;;;;;;0.10;0.10;;;9.70;99.90;;;;;;4978760;28;20026;-85
2022/04/09 12:30:08;;;;;;;0.88;0.20;;;9.30;99.90;;;;;;4967622;28;20050;-85
2022/04/09 12:32:34;;;;;;;0.73;0.10;;;9.20;99.90;;;;;;4976850;28;20168;-85
2022/04/09 12:35:05;;;;;;;2.58;0.38;;;9.20;99.90;;;;;;4990272;28;20117;-85
2022/04/09 12:37:50;;;;;;;0.20;0.20;;;9.00;99.90;;;;;;4974996;28;20045;-85
2022/04/09 12:40:18;;;;;;;3.53;0.60;;;9.60;99.90;;;;;;4976124;28;20046;-84
2022/04/09 12:42:45;;;;;;;1.88;0.60;;;9.60;99.90;;;;;;4964684;28;20521;-84
2022/04/09 12:45:12;;;;;;;1.45;0.30;;;9.70;99.90;;;;;;4972491;28;20022;-86
2022/04/09 12:47:37;;;;;;;4.95;0.50;;;8.70;99.90;;;;;;4973810;28;20065;-86
2022/04/09 12:50:04;;;;;;;3.92;0.40;;;7.40;99.90;;;;;;4986201;28;20390;-85
2022/04/09 12:52:30;;;;;;;0.80;0.30;;;6.50;1.00;;;;;;4981877;28;20030;-85
2022/04/09 12:54:56;;;;;;;0.50;0.20;;;6.30;99.90;;;;;;4976326;28;20034;-85
2022/04/09 12:57:22;;;;;;;2.20;0.30;;;6.80;99.90;;;;;;4977331;28;20023;-85
2022/04/09 12:59:47;;;;;;;1.45;0.20;;;7.70;99.90;;;;;;4987466;28;20033;-85